ΕΜΥ, Εθνική Μετεωρολογική Υπηρεσία - Δελτία Καιρού, Προγνώσεις

ΑΕΡΟΝΑΥΤΙΛΙΑ

GREEK AIRPORTS CODES

TAF LGSA 100500Z 1006/1106 34010KT 9999 FEW025 BECMG 1018/1020 VRB05KT=

EUROPEAN AIRPORTS CODES

LFPO 100730Z AUTO 06003KT CAVOK 16/08 Q1023=